sensor_id;sensor_type;location;lat;lon;timestamp;pressure;altitude;pressure_sealevel;temperature;humidity
63691;BME280;49837;57.280;27.070;2023-12-29T00:00:00;98540.16;;;0.44;100.0
63691;BME280;49837;57.280;27.070;2023-12-29T00:01:00;98536.02;;;0.4;100.0
63691;BME280;49837;57.280;27.070;2023-12-29T00:02:01;98535.58;;;0.37;100.0
63691;BME280;49837;57.280;27.070;2023-12-29T00:03:01;98533.82;;;0.45;100.0
63691;BME280;49837;57.280;27.070;2023-12-29T00:04:01;98536.98;;;0.37;100.0
63691;BME280;49837;57.280;27.070;2023-12-29T00:05:02;98537.04;;;0.33;100.0
63691;BME280;49837;57.280;27.070;2023-12-29T00:06:02;98535.45;;;0.3;100.0
63691;BME280;49837;57.280;27.070;2023-12-29T00:07:03;98536.81;;;0.44;100.0
63691;BME280;49837;57.280;27.070;2023-12-29T00:08:03;98541.04;;;0.4;100.0
63691;BME280;49837;57.280;27.070;2023-12-29T00:09:03;98539.82;;;0.45;100.0
63691;BME280;49837;57.280;27.070;2023-12-29T00:10:04;98541.89;;;0.49;100.0
63691;BME280;49837;57.280;27.070;2023-12-29T00:11:04;98538.34;;;0.56;100.0
63691;BME280;49837;57.280;27.070;2023-12-29T00:12:04;98538.23;;;0.48;100.0
63691;BME280;49837;57.280;27.070;2023-12-29T00:13:04;98539.53;;;0.47;100.0
63691;BME280;49837;57.280;27.070;2023-12-29T00:14:05;98536.08;;;0.43;100.0
63691;BME280;49837;57.280;27.070;2023-12-29T00:15:06;98544.98;;;0.4;100.0
63691;BME280;49837;57.280;27.070;2023-12-29T00:16:06;98542.98;;;0.42;100.0
63691;BME280;49837;57.280;27.070;2023-12-29T00:17:06;98547.31;;;0.48;100.0
63691;BME280;49837;57.280;27.070;2023-12-29T00:18:06;98543.16;;;0.46;100.0
63691;BME280;49837;57.280;27.070;2023-12-29T00:19:07;98544.58;;;0.51;100.0
63691;BME280;49837;57.280;27.070;2023-12-29T00:20:08;98546.14;;;0.56;100.0
63691;BME280;49837;57.280;27.070;2023-12-29T00:21:07;98546.35;;;0.68;100.0
63691;BME280;49837;57.280;27.070;2023-12-29T00:22:08;98548.16;;;0.62;100.0
63691;BME280;49837;57.280;27.070;2023-12-29T00:23:08;98546.27;;;0.53;100.0
63691;BME280;49837;57.280;27.070;2023-12-29T00:24:08;98550.55;;;0.51;100.0
63691;BME280;49837;57.280;27.070;2023-12-29T00:25:09;98548.27;;;0.51;100.0
63691;BME280;49837;57.280;27.070;2023-12-29T00:26:09;98546.56;;;0.54;100.0
63691;BME280;49837;57.280;27.070;2023-12-29T00:27:09;98548.39;;;0.53;100.0
63691;BME280;49837;57.280;27.070;2023-12-29T00:28:10;98548.02;;;0.52;100.0
63691;BME280;49837;57.280;27.070;2023-12-29T00:29:10;98547.16;;;0.54;100.0
63691;BME280;49837;57.280;27.070;2023-12-29T00:30:11;98550.14;;;0.61;100.0
63691;BME280;49837;57.280;27.070;2023-12-29T00:31:17;98543.58;;;0.67;100.0
63691;BME280;49837;57.280;27.070;2023-12-29T00:32:15;98543.33;;;0.56;100.0
63691;BME280;49837;57.280;27.070;2023-12-29T00:33:15;98544.41;;;0.52;100.0
63691;BME280;49837;57.280;27.070;2023-12-29T00:34:15;98540.46;;;0.46;100.0
63691;BME280;49837;57.280;27.070;2023-12-29T00:35:16;98538.98;;;0.46;100.0
63691;BME280;49837;57.280;27.070;2023-12-29T00:36:16;98540.11;;;0.53;100.0
63691;BME280;49837;57.280;27.070;2023-12-29T00:37:16;98544.58;;;0.56;100.0
63691;BME280;49837;57.280;27.070;2023-12-29T00:38:17;98544.55;;;0.58;100.0
63691;BME280;49837;57.280;27.070;2023-12-29T00:39:17;98543.36;;;0.6;100.0
63691;BME280;49837;57.280;27.070;2023-12-29T00:40:17;98546.12;;;0.63;100.0
63691;BME280;49837;57.280;27.070;2023-12-29T00:41:18;98548.56;;;0.63;100.0
63691;BME280;49837;57.280;27.070;2023-12-29T00:42:18;98543.97;;;0.65;100.0
63691;BME280;49837;57.280;27.070;2023-12-29T00:43:18;98539.36;;;0.64;100.0
63691;BME280;49837;57.280;27.070;2023-12-29T00:44:19;98541.36;;;0.68;100.0
63691;BME280;49837;57.280;27.070;2023-12-29T00:45:19;98538.77;;;0.64;100.0
63691;BME280;49837;57.280;27.070;2023-12-29T00:46:19;98540.24;;;0.6;100.0
63691;BME280;49837;57.280;27.070;2023-12-29T00:47:20;98540.0;;;0.54;100.0
63691;BME280;49837;57.280;27.070;2023-12-29T00:48:20;98539.66;;;0.51;100.0
63691;BME280;49837;57.280;27.070;2023-12-29T00:49:21;98540.5;;;0.54;100.0
63691;BME280;49837;57.280;27.070;2023-12-29T00:50:21;98544.03;;;0.55;100.0
63691;BME280;49837;57.280;27.070;2023-12-29T00:51:21;98542.15;;;0.58;100.0
63691;BME280;49837;57.280;27.070;2023-12-29T00:52:22;98540.05;;;0.63;100.0
63691;BME280;49837;57.280;27.070;2023-12-29T00:53:22;98535.46;;;0.63;100.0
63691;BME280;49837;57.280;27.070;2023-12-29T00:54:22;98542.44;;;0.56;100.0
63691;BME280;49837;57.280;27.070;2023-12-29T00:55:23;98541.8;;;0.55;100.0
63691;BME280;49837;57.280;27.070;2023-12-29T00:56:23;98541.18;;;0.57;100.0
63691;BME280;49837;57.280;27.070;2023-12-29T00:57:23;98542.83;;;0.64;100.0
63691;BME280;49837;57.280;27.070;2023-12-29T00:58:24;98539.13;;;0.68;100.0
63691;BME280;49837;57.280;27.070;2023-12-29T00:59:24;98541.34;;;0.69;100.0
63691;BME280;49837;57.280;27.070;2023-12-29T01:00:25;98538.06;;;0.69;100.0
63691;BME280;49837;57.280;27.070;2023-12-29T01:01:25;98543.34;;;0.71;100.0
63691;BME280;49837;57.280;27.070;2023-12-29T01:02:25;98538.0;;;0.77;100.0
63691;BME280;49837;57.280;27.070;2023-12-29T01:03:25;98537.83;;;0.79;100.0
63691;BME280;49837;57.280;27.070;2023-12-29T01:04:26;98536.41;;;0.74;100.0
63691;BME280;49837;57.280;27.070;2023-12-29T01:05:26;98535.67;;;0.79;100.0
63691;BME280;49837;57.280;27.070;2023-12-29T01:06:27;98532.66;;;0.78;100.0
63691;BME280;49837;57.280;27.070;2023-12-29T01:07:27;98534.99;;;0.76;100.0
63691;BME280;49837;57.280;27.070;2023-12-29T01:08:27;98533.27;;;0.71;100.0
63691;BME280;49837;57.280;27.070;2023-12-29T01:09:28;98532.57;;;0.74;100.0
63691;BME280;49837;57.280;27.070;2023-12-29T01:10:28;98535.41;;;0.79;100.0
63691;BME280;49837;57.280;27.070;2023-12-29T01:11:28;98534.08;;;0.82;100.0
63691;BME280;49837;57.280;27.070;2023-12-29T01:12:29;98533.91;;;0.82;100.0
63691;BME280;49837;57.280;27.070;2023-12-29T01:13:29;98530.2;;;0.82;100.0
63691;BME280;49837;57.280;27.070;2023-12-29T01:14:29;98532.74;;;0.83;100.0
63691;BME280;49837;57.280;27.070;2023-12-29T01:15:30;98534.35;;;0.85;100.0
63691;BME280;49837;57.280;27.070;2023-12-29T01:16:30;98528.16;;;0.96;100.0
63691;BME280;49837;57.280;27.070;2023-12-29T01:17:30;98533.22;;;1.03;100.0
63691;BME280;49837;57.280;27.070;2023-12-29T01:18:32;98532.53;;;0.96;100.0
63691;BME280;49837;57.280;27.070;2023-12-29T01:19:31;98535.02;;;0.94;100.0
63691;BME280;49837;57.280;27.070;2023-12-29T01:20:31;98534.74;;;0.95;100.0
63691;BME280;49837;57.280;27.070;2023-12-29T01:21:32;98534.81;;;0.98;100.0
63691;BME280;49837;57.280;27.070;2023-12-29T01:22:32;98534.84;;;0.99;100.0
63691;BME280;49837;57.280;27.070;2023-12-29T01:23:33;98530.06;;;0.96;100.0
63691;BME280;49837;57.280;27.070;2023-12-29T01:24:33;98530.45;;;0.96;100.0
63691;BME280;49837;57.280;27.070;2023-12-29T01:25:37;98530.31;;;1.0;100.0
63691;BME280;49837;57.280;27.070;2023-12-29T01:26:37;98525.75;;;0.94;100.0
63691;BME280;49837;57.280;27.070;2023-12-29T01:27:38;98527.28;;;1.01;100.0
63691;BME280;49837;57.280;27.070;2023-12-29T01:28:38;98528.55;;;0.98;100.0
63691;BME280;49837;57.280;27.070;2023-12-29T01:29:38;98526.02;;;0.98;100.0
63691;BME280;49837;57.280;27.070;2023-12-29T01:30:39;98523.86;;;1.03;100.0
63691;BME280;49837;57.280;27.070;2023-12-29T01:31:39;98524.96;;;1.02;100.0
63691;BME280;49837;57.280;27.070;2023-12-29T01:32:39;98520.88;;;0.99;100.0
63691;BME280;49837;57.280;27.070;2023-12-29T01:33:40;98522.74;;;1.11;100.0
63691;BME280;49837;57.280;27.070;2023-12-29T01:34:40;98516.39;;;1.08;100.0
63691;BME280;49837;57.280;27.070;2023-12-29T01:35:40;98520.28;;;1.07;100.0
63691;BME280;49837;57.280;27.070;2023-12-29T01:36:41;98511.91;;;1.06;100.0
63691;BME280;49837;57.280;27.070;2023-12-29T01:37:42;98518.11;;;1.03;100.0
63691;BME280;49837;57.280;27.070;2023-12-29T01:38:42;98523.08;;;1.01;100.0
63691;BME280;49837;57.280;27.070;2023-12-29T01:39:42;98522.97;;;1.07;100.0
63691;BME280;49837;57.280;27.070;2023-12-29T01:40:44;98523.01;;;1.01;100.0
63691;BME280;49837;57.280;27.070;2023-12-29T01:41:42;98519.62;;;0.97;100.0
63691;BME280;49837;57.280;27.070;2023-12-29T01:42:43;98516.39;;;1.04;100.0
63691;BME280;49837;57.280;27.070;2023-12-29T01:44:48;98514.88;;;1.1;100.0
63691;BME280;49837;57.280;27.070;2023-12-29T01:45:49;98515.73;;;1.08;100.0
63691;BME280;49837;57.280;27.070;2023-12-29T01:46:55;98515.35;;;1.07;100.0
63691;BME280;49837;57.280;27.070;2023-12-29T01:47:54;98512.5;;;1.1;100.0
63691;BME280;49837;57.280;27.070;2023-12-29T01:48:55;98515.05;;;1.09;100.0
63691;BME280;49837;57.280;27.070;2023-12-29T01:49:55;98513.55;;;1.1;100.0
63691;BME280;49837;57.280;27.070;2023-12-29T01:50:55;98512.76;;;1.09;100.0
63691;BME280;49837;57.280;27.070;2023-12-29T01:51:57;98509.07;;;1.04;100.0
63691;BME280;49837;57.280;27.070;2023-12-29T01:52:56;98506.44;;;1.0;100.0
63691;BME280;49837;57.280;27.070;2023-12-29T01:53:57;98507.2;;;1.02;100.0
63691;BME280;49837;57.280;27.070;2023-12-29T01:54:57;98500.72;;;0.97;100.0
63691;BME280;49837;57.280;27.070;2023-12-29T01:55:57;98508.39;;;1.05;100.0
63691;BME280;49837;57.280;27.070;2023-12-29T01:56:59;98515.23;;;1.04;100.0
63691;BME280;49837;57.280;27.070;2023-12-29T01:57:58;98513.41;;;1.0;100.0
63691;BME280;49837;57.280;27.070;2023-12-29T01:58:58;98512.84;;;1.04;100.0
63691;BME280;49837;57.280;27.070;2023-12-29T02:00:02;98512.06;;;1.07;100.0
63691;BME280;49837;57.280;27.070;2023-12-29T02:01:03;98514.06;;;1.13;100.0
63691;BME280;49837;57.280;27.070;2023-12-29T02:02:03;98514.03;;;1.11;100.0
63691;BME280;49837;57.280;27.070;2023-12-29T02:03:03;98514.97;;;1.15;100.0
63691;BME280;49837;57.280;27.070;2023-12-29T02:04:03;98519.66;;;1.14;100.0
63691;BME280;49837;57.280;27.070;2023-12-29T02:05:04;98520.7;;;1.1;100.0
63691;BME280;49837;57.280;27.070;2023-12-29T02:06:06;98519.48;;;1.09;100.0
63691;BME280;49837;57.280;27.070;2023-12-29T02:07:04;98523.33;;;1.16;100.0
63691;BME280;49837;57.280;27.070;2023-12-29T02:08:05;98522.1;;;1.15;100.0
63691;BME280;49837;57.280;27.070;2023-12-29T02:09:05;98521.87;;;1.1;100.0
63691;BME280;49837;57.280;27.070;2023-12-29T02:10:06;98520.12;;;1.1;100.0
63691;BME280;49837;57.280;27.070;2023-12-29T02:11:06;98525.74;;;1.08;100.0
63691;BME280;49837;57.280;27.070;2023-12-29T02:12:07;98519.34;;;1.13;100.0
63691;BME280;49837;57.280;27.070;2023-12-29T02:13:07;98516.26;;;1.15;100.0
63691;BME280;49837;57.280;27.070;2023-12-29T02:14:07;98522.59;;;1.2;100.0
63691;BME280;49837;57.280;27.070;2023-12-29T02:15:08;98524.73;;;1.2;100.0
63691;BME280;49837;57.280;27.070;2023-12-29T02:18:17;98525.02;;;1.35;100.0
63691;BME280;49837;57.280;27.070;2023-12-29T02:20:19;98519.2;;;1.3;100.0
63691;BME280;49837;57.280;27.070;2023-12-29T02:21:25;98516.22;;;1.4;100.0
63691;BME280;49837;57.280;27.070;2023-12-29T02:22:23;98522.03;;;1.4;100.0
63691;BME280;49837;57.280;27.070;2023-12-29T02:23:23;98519.59;;;1.4;100.0
63691;BME280;49837;57.280;27.070;2023-12-29T02:24:23;98521.16;;;1.35;100.0
63691;BME280;49837;57.280;27.070;2023-12-29T02:25:24;98521.67;;;1.34;100.0
63691;BME280;49837;57.280;27.070;2023-12-29T02:26:25;98518.19;;;1.31;100.0
63691;BME280;49837;57.280;27.070;2023-12-29T02:28:30;98515.58;;;1.21;100.0
63691;BME280;49837;57.280;27.070;2023-12-29T02:29:32;98513.94;;;1.25;100.0
63691;BME280;49837;57.280;27.070;2023-12-29T02:30:45;98519.8;;;1.24;100.0
63691;BME280;49837;57.280;27.070;2023-12-29T02:31:36;98521.25;;;1.15;100.0
63691;BME280;49837;57.280;27.070;2023-12-29T02:32:39;98518.45;;;1.26;100.0
63691;BME280;49837;57.280;27.070;2023-12-29T02:33:40;98521.73;;;1.35;100.0
63691;BME280;49837;57.280;27.070;2023-12-29T02:34:40;98514.9;;;1.35;100.0
63691;BME280;49837;57.280;27.070;2023-12-29T02:35:42;98522.33;;;1.34;100.0
63691;BME280;49837;57.280;27.070;2023-12-29T02:36:41;98521.66;;;1.34;100.0
63691;BME280;49837;57.280;27.070;2023-12-29T02:37:41;98522.3;;;1.26;100.0
63691;BME280;49837;57.280;27.070;2023-12-29T02:38:42;98524.16;;;1.28;100.0
63691;BME280;49837;57.280;27.070;2023-12-29T02:39:41;98519.34;;;1.26;100.0
63691;BME280;49837;57.280;27.070;2023-12-29T02:40:42;98520.59;;;1.34;100.0
63691;BME280;49837;57.280;27.070;2023-12-29T02:41:42;98521.88;;;1.31;100.0
63691;BME280;49837;57.280;27.070;2023-12-29T02:42:47;98524.67;;;1.27;100.0
63691;BME280;49837;57.280;27.070;2023-12-29T02:43:45;98520.77;;;1.37;100.0
63691;BME280;49837;57.280;27.070;2023-12-29T02:44:45;98522.7;;;1.39;100.0
63691;BME280;49837;57.280;27.070;2023-12-29T02:45:46;98523.76;;;1.32;100.0
63691;BME280;49837;57.280;27.070;2023-12-29T02:46:46;98529.69;;;1.26;100.0
63691;BME280;49837;57.280;27.070;2023-12-29T02:47:47;98524.62;;;1.24;100.0
63691;BME280;49837;57.280;27.070;2023-12-29T02:48:47;98529.7;;;1.31;100.0
63691;BME280;49837;57.280;27.070;2023-12-29T02:49:47;98531.09;;;1.3;100.0
63691;BME280;49837;57.280;27.070;2023-12-29T02:50:47;98532.55;;;1.36;100.0
63691;BME280;49837;57.280;27.070;2023-12-29T02:51:48;98538.99;;;1.38;100.0
63691;BME280;49837;57.280;27.070;2023-12-29T02:52:48;98532.11;;;1.42;100.0
63691;BME280;49837;57.280;27.070;2023-12-29T02:53:48;98536.05;;;1.42;100.0
63691;BME280;49837;57.280;27.070;2023-12-29T02:54:49;98535.7;;;1.4;100.0
63691;BME280;49837;57.280;27.070;2023-12-29T02:55:49;98536.88;;;1.33;100.0
63691;BME280;49837;57.280;27.070;2023-12-29T02:56:49;98539.51;;;1.23;100.0
63691;BME280;49837;57.280;27.070;2023-12-29T02:57:50;98534.38;;;1.26;100.0
63691;BME280;49837;57.280;27.070;2023-12-29T02:58:50;98537.8;;;1.42;100.0
63691;BME280;49837;57.280;27.070;2023-12-29T02:59:50;98542.2;;;1.38;100.0
63691;BME280;49837;57.280;27.070;2023-12-29T03:00:51;98538.05;;;1.41;100.0
63691;BME280;49837;57.280;27.070;2023-12-29T03:01:51;98543.53;;;1.46;100.0
63691;BME280;49837;57.280;27.070;2023-12-29T03:02:52;98545.83;;;1.43;100.0
63691;BME280;49837;57.280;27.070;2023-12-29T03:03:52;98549.52;;;1.43;100.0
63691;BME280;49837;57.280;27.070;2023-12-29T03:04:52;98550.86;;;1.41;100.0
63691;BME280;49837;57.280;27.070;2023-12-29T03:05:53;98547.25;;;1.37;100.0
63691;BME280;49837;57.280;27.070;2023-12-29T03:06:53;98553.45;;;1.38;100.0
63691;BME280;49837;57.280;27.070;2023-12-29T03:07:53;98549.41;;;1.39;100.0
63691;BME280;49837;57.280;27.070;2023-12-29T03:08:54;98549.44;;;1.38;100.0
63691;BME280;49837;57.280;27.070;2023-12-29T03:09:54;98549.15;;;1.36;100.0
63691;BME280;49837;57.280;27.070;2023-12-29T03:10:54;98551.94;;;1.45;100.0
63691;BME280;49837;57.280;27.070;2023-12-29T03:11:55;98554.7;;;1.43;100.0
63691;BME280;49837;57.280;27.070;2023-12-29T03:12:55;98554.89;;;1.45;100.0
63691;BME280;49837;57.280;27.070;2023-12-29T03:13:55;98554.98;;;1.45;100.0
63691;BME280;49837;57.280;27.070;2023-12-29T03:14:56;98555.3;;;1.37;100.0
63691;BME280;49837;57.280;27.070;2023-12-29T03:15:56;98560.42;;;1.25;100.0
63691;BME280;49837;57.280;27.070;2023-12-29T03:16:56;98562.98;;;1.25;100.0
63691;BME280;49837;57.280;27.070;2023-12-29T03:17:57;98560.06;;;1.27;100.0
63691;BME280;49837;57.280;27.070;2023-12-29T03:18:57;98564.59;;;1.32;100.0
63691;BME280;49837;57.280;27.070;2023-12-29T03:19:58;98565.41;;;1.31;100.0
63691;BME280;49837;57.280;27.070;2023-12-29T03:20:58;98566.58;;;1.34;100.0
63691;BME280;49837;57.280;27.070;2023-12-29T03:21:58;98560.85;;;1.39;100.0
63691;BME280;49837;57.280;27.070;2023-12-29T03:22:59;98564.8;;;1.37;100.0
63691;BME280;49837;57.280;27.070;2023-12-29T03:23:59;98565.5;;;1.36;100.0
63691;BME280;49837;57.280;27.070;2023-12-29T03:24:59;98564.26;;;1.27;100.0
63691;BME280;49837;57.280;27.070;2023-12-29T03:26:00;98562.62;;;1.3;100.0
63691;BME280;49837;57.280;27.070;2023-12-29T03:27:00;98559.95;;;1.33;100.0
63691;BME280;49837;57.280;27.070;2023-12-29T03:28:00;98558.36;;;1.34;100.0
63691;BME280;49837;57.280;27.070;2023-12-29T03:29:01;98563.33;;;1.37;100.0
63691;BME280;49837;57.280;27.070;2023-12-29T03:30:01;98563.16;;;1.33;100.0
63691;BME280;49837;57.280;27.070;2023-12-29T03:31:02;98566.7;;;1.37;100.0
63691;BME280;49837;57.280;27.070;2023-12-29T03:32:02;98567.77;;;1.38;100.0
63691;BME280;49837;57.280;27.070;2023-12-29T03:33:02;98565.36;;;1.39;100.0
63691;BME280;49837;57.280;27.070;2023-12-29T03:34:03;98564.34;;;1.44;100.0
63691;BME280;49837;57.280;27.070;2023-12-29T03:35:04;98569.67;;;1.54;100.0
63691;BME280;49837;57.280;27.070;2023-12-29T03:36:04;98569.88;;;1.56;100.0
63691;BME280;49837;57.280;27.070;2023-12-29T03:37:04;98574.16;;;1.57;100.0
63691;BME280;49837;57.280;27.070;2023-12-29T03:38:04;98572.09;;;1.62;100.0
63691;BME280;49837;57.280;27.070;2023-12-29T03:39:06;98574.98;;;1.65;100.0
63691;BME280;49837;57.280;27.070;2023-12-29T03:40:06;98576.88;;;1.68;100.0
63691;BME280;49837;57.280;27.070;2023-12-29T03:41:05;98575.59;;;1.66;100.0
63691;BME280;49837;57.280;27.070;2023-12-29T03:42:06;98571.28;;;1.52;100.0
63691;BME280;49837;57.280;27.070;2023-12-29T03:43:06;98570.44;;;1.5;100.0
63691;BME280;49837;57.280;27.070;2023-12-29T03:44:07;98570.62;;;1.48;100.0
63691;BME280;49837;57.280;27.070;2023-12-29T03:45:08;98574.17;;;1.47;100.0
63691;BME280;49837;57.280;27.070;2023-12-29T03:46:20;98580.67;;;1.46;100.0
63691;BME280;49837;57.280;27.070;2023-12-29T03:47:09;98579.17;;;1.51;100.0
63691;BME280;49837;57.280;27.070;2023-12-29T03:48:09;98579.75;;;1.51;100.0
63691;BME280;49837;57.280;27.070;2023-12-29T03:49:09;98579.16;;;1.53;100.0
63691;BME280;49837;57.280;27.070;2023-12-29T03:50:09;98582.11;;;1.53;100.0
63691;BME280;49837;57.280;27.070;2023-12-29T03:51:10;98580.58;;;1.46;100.0
63691;BME280;49837;57.280;27.070;2023-12-29T03:52:10;98586.93;;;1.49;100.0
63691;BME280;49837;57.280;27.070;2023-12-29T03:53:10;98584.09;;;1.39;100.0
63691;BME280;49837;57.280;27.070;2023-12-29T03:54:11;98586.38;;;1.34;100.0
63691;BME280;49837;57.280;27.070;2023-12-29T03:55:11;98587.17;;;1.32;100.0
63691;BME280;49837;57.280;27.070;2023-12-29T03:56:15;98580.55;;;1.29;100.0
63691;BME280;49837;57.280;27.070;2023-12-29T03:57:13;98581.97;;;1.43;100.0
63691;BME280;49837;57.280;27.070;2023-12-29T03:58:14;98586.91;;;1.37;100.0
63691;BME280;49837;57.280;27.070;2023-12-29T03:59:14;98587.33;;;1.36;100.0
63691;BME280;49837;57.280;27.070;2023-12-29T04:00:15;98587.45;;;1.26;100.0
63691;BME280;49837;57.280;27.070;2023-12-29T04:01:16;98587.59;;;1.21;100.0
63691;BME280;49837;57.280;27.070;2023-12-29T04:02:15;98590.77;;;1.14;100.0
63691;BME280;49837;57.280;27.070;2023-12-29T04:03:15;98589.94;;;1.09;100.0
63691;BME280;49837;57.280;27.070;2023-12-29T04:04:16;98588.38;;;1.15;100.0
63691;BME280;49837;57.280;27.070;2023-12-29T04:05:16;98590.37;;;1.22;100.0
63691;BME280;49837;57.280;27.070;2023-12-29T04:06:16;98591.0;;;1.29;100.0
63691;BME280;49837;57.280;27.070;2023-12-29T04:07:17;98591.8;;;1.34;100.0
63691;BME280;49837;57.280;27.070;2023-12-29T04:08:17;98590.44;;;1.37;100.0
63691;BME280;49837;57.280;27.070;2023-12-29T04:09:18;98596.7;;;1.37;100.0
63691;BME280;49837;57.280;27.070;2023-12-29T04:10:18;98595.12;;;1.32;100.0
63691;BME280;49837;57.280;27.070;2023-12-29T04:11:18;98597.34;;;1.33;100.0
63691;BME280;49837;57.280;27.070;2023-12-29T04:12:19;98592.45;;;1.31;100.0
63691;BME280;49837;57.280;27.070;2023-12-29T04:13:19;98590.84;;;1.29;100.0
63691;BME280;49837;57.280;27.070;2023-12-29T04:14:19;98591.98;;;1.24;100.0
63691;BME280;49837;57.280;27.070;2023-12-29T04:15:20;98594.19;;;1.25;100.0
63691;BME280;49837;57.280;27.070;2023-12-29T04:16:20;98594.62;;;1.38;100.0
63691;BME280;49837;57.280;27.070;2023-12-29T04:17:20;98596.8;;;1.54;100.0
63691;BME280;49837;57.280;27.070;2023-12-29T04:18:22;98596.59;;;1.56;100.0
63691;BME280;49837;57.280;27.070;2023-12-29T04:19:21;98593.17;;;1.54;100.0
63691;BME280;49837;57.280;27.070;2023-12-29T04:20:21;98600.16;;;1.58;100.0
63691;BME280;49837;57.280;27.070;2023-12-29T04:21:22;98593.77;;;1.71;100.0
63691;BME280;49837;57.280;27.070;2023-12-29T04:22:22;98593.44;;;1.76;100.0
63691;BME280;49837;57.280;27.070;2023-12-29T04:23:23;98594.36;;;1.78;100.0
63691;BME280;49837;57.280;27.070;2023-12-29T04:24:23;98595.38;;;1.73;100.0
63691;BME280;49837;57.280;27.070;2023-12-29T04:25:23;98593.88;;;1.74;100.0
63691;BME280;49837;57.280;27.070;2023-12-29T04:26:24;98590.69;;;1.77;100.0
63691;BME280;49837;57.280;27.070;2023-12-29T04:27:24;98590.06;;;1.76;100.0
63691;BME280;49837;57.280;27.070;2023-12-29T04:28:24;98588.61;;;1.78;100.0
63691;BME280;49837;57.280;27.070;2023-12-29T04:29:25;98590.36;;;1.74;100.0
63691;BME280;49837;57.280;27.070;2023-12-29T04:30:25;98588.95;;;1.69;100.0
63691;BME280;49837;57.280;27.070;2023-12-29T04:31:25;98588.75;;;1.67;100.0
63691;BME280;49837;57.280;27.070;2023-12-29T04:32:26;98590.22;;;1.59;100.0
63691;BME280;49837;57.280;27.070;2023-12-29T04:33:26;98588.67;;;1.63;100.0
63691;BME280;49837;57.280;27.070;2023-12-29T04:34:26;98591.11;;;1.68;100.0
63691;BME280;49837;57.280;27.070;2023-12-29T04:35:27;98594.05;;;1.69;100.0
63691;BME280;49837;57.280;27.070;2023-12-29T04:36:27;98591.47;;;1.7;100.0
63691;BME280;49837;57.280;27.070;2023-12-29T04:37:28;98590.86;;;1.67;100.0
63691;BME280;49837;57.280;27.070;2023-12-29T04:38:28;98592.04;;;1.72;100.0
63691;BME280;49837;57.280;27.070;2023-12-29T04:39:28;98595.17;;;1.75;100.0
63691;BME280;49837;57.280;27.070;2023-12-29T04:40:29;98593.75;;;1.76;100.0
63691;BME280;49837;57.280;27.070;2023-12-29T04:41:29;98596.19;;;1.77;100.0
63691;BME280;49837;57.280;27.070;2023-12-29T04:42:29;98597.95;;;1.76;100.0
63691;BME280;49837;57.280;27.070;2023-12-29T04:43:30;98595.84;;;1.78;100.0
63691;BME280;49837;57.280;27.070;2023-12-29T04:44:30;98599.27;;;1.81;100.0
63691;BME280;49837;57.280;27.070;2023-12-29T04:45:30;98599.44;;;1.75;100.0
63691;BME280;49837;57.280;27.070;2023-12-29T04:46:31;98598.61;;;1.76;100.0
63691;BME280;49837;57.280;27.070;2023-12-29T04:47:31;98598.25;;;1.74;100.0
63691;BME280;49837;57.280;27.070;2023-12-29T04:48:32;98600.77;;;1.71;100.0
63691;BME280;49837;57.280;27.070;2023-12-29T04:49:32;98601.77;;;1.6;100.0
63691;BME280;49837;57.280;27.070;2023-12-29T04:50:32;98603.52;;;1.46;100.0
63691;BME280;49837;57.280;27.070;2023-12-29T04:51:33;98604.5;;;1.55;100.0
63691;BME280;49837;57.280;27.070;2023-12-29T04:52:33;98603.07;;;1.56;100.0
63691;BME280;49837;57.280;27.070;2023-12-29T04:53:33;98602.48;;;1.57;100.0
63691;BME280;49837;57.280;27.070;2023-12-29T04:54:34;98597.92;;;1.65;100.0
63691;BME280;49837;57.280;27.070;2023-12-29T04:55:34;98597.95;;;1.67;100.0
63691;BME280;49837;57.280;27.070;2023-12-29T04:56:34;98596.94;;;1.6;100.0
63691;BME280;49837;57.280;27.070;2023-12-29T04:57:35;98600.94;;;1.56;100.0
63691;BME280;49837;57.280;27.070;2023-12-29T04:58:35;98600.7;;;1.56;100.0
63691;BME280;49837;57.280;27.070;2023-12-29T04:59:35;98600.61;;;1.53;100.0
63691;BME280;49837;57.280;27.070;2023-12-29T05:00:36;98600.06;;;1.46;100.0
63691;BME280;49837;57.280;27.070;2023-12-29T05:01:37;98602.47;;;1.45;100.0
63691;BME280;49837;57.280;27.070;2023-12-29T05:02:37;98604.28;;;1.36;100.0
63691;BME280;49837;57.280;27.070;2023-12-29T05:03:37;98603.45;;;1.31;100.0
63691;BME280;49837;57.280;27.070;2023-12-29T05:04:38;98602.35;;;1.32;100.0
63691;BME280;49837;57.280;27.070;2023-12-29T05:05:38;98607.43;;;1.33;100.0
63691;BME280;49837;57.280;27.070;2023-12-29T05:06:38;98604.12;;;1.3;100.0
63691;BME280;49837;57.280;27.070;2023-12-29T05:07:39;98605.09;;;1.31;100.0
63691;BME280;49837;57.280;27.070;2023-12-29T05:08:39;98601.17;;;1.3;100.0
63691;BME280;49837;57.280;27.070;2023-12-29T05:09:40;98603.28;;;1.26;100.0
63691;BME280;49837;57.280;27.070;2023-12-29T05:10:40;98602.5;;;1.29;100.0
63691;BME280;49837;57.280;27.070;2023-12-29T05:11:40;98604.05;;;1.29;100.0
63691;BME280;49837;57.280;27.070;2023-12-29T05:12:41;98602.12;;;1.26;100.0
63691;BME280;49837;57.280;27.070;2023-12-29T05:13:41;98601.27;;;1.28;100.0
63691;BME280;49837;57.280;27.070;2023-12-29T05:14:41;98601.95;;;1.27;100.0
63691;BME280;49837;57.280;27.070;2023-12-29T05:15:42;98600.95;;;1.24;100.0
63691;BME280;49837;57.280;27.070;2023-12-29T05:16:42;98597.45;;;1.3;100.0
63691;BME280;49837;57.280;27.070;2023-12-29T05:17:43;98602.03;;;1.28;100.0
63691;BME280;49837;57.280;27.070;2023-12-29T05:18:43;98602.27;;;1.24;100.0
63691;BME280;49837;57.280;27.070;2023-12-29T05:19:43;98604.42;;;1.28;100.0
63691;BME280;49837;57.280;27.070;2023-12-29T05:20:44;98604.4;;;1.29;100.0
63691;BME280;49837;57.280;27.070;2023-12-29T05:21:44;98603.55;;;1.31;100.0
63691;BME280;49837;57.280;27.070;2023-12-29T05:22:44;98601.64;;;1.26;100.0
63691;BME280;49837;57.280;27.070;2023-12-29T05:23:45;98605.64;;;1.32;100.0
63691;BME280;49837;57.280;27.070;2023-12-29T05:24:45;98604.75;;;1.37;100.0
63691;BME280;49837;57.280;27.070;2023-12-29T05:25:45;98600.67;;;1.39;100.0